createdAt,value
2023-02-26T00:02:16.671Z,21.59
2023-02-26T00:05:21.233Z,21.58
2023-02-26T00:08:24.206Z,21.58
2023-02-26T00:11:27.708Z,21.57
2023-02-26T00:14:31.127Z,21.58
2023-02-26T00:17:42.914Z,21.57
2023-02-26T00:20:47.983Z,21.58
2023-02-26T00:23:51.347Z,21.59
2023-02-26T00:26:55.408Z,21.59
2023-02-26T00:29:58.916Z,21.59
2023-02-26T00:33:02.389Z,21.58
2023-02-26T00:36:21.786Z,21.58
2023-02-26T00:39:38.655Z,21.56
2023-02-26T00:42:42.292Z,21.56
2023-02-26T00:45:52.791Z,21.55
2023-02-26T00:49:03.936Z,21.55
2023-02-26T00:52:20.117Z,21.54
2023-02-26T00:55:23.341Z,21.54
2023-02-26T00:58:26.295Z,21.54
2023-02-26T01:01:29.287Z,21.54
2023-02-26T01:04:32.912Z,21.54
2023-02-26T01:07:43.233Z,21.53
2023-02-26T01:10:46.697Z,21.53
2023-02-26T01:13:50.381Z,21.53
2023-02-26T01:16:58.748Z,21.52
2023-02-26T01:20:05.526Z,21.52
2023-02-26T01:23:13.434Z,21.51
2023-02-26T01:26:22.509Z,21.50
2023-02-26T01:29:26.065Z,21.49
2023-02-26T01:32:36.874Z,21.49
2023-02-26T01:35:44.933Z,21.48
2023-02-26T01:38:59.410Z,21.49
2023-02-26T01:42:10.577Z,21.48
2023-02-26T01:45:17.591Z,21.48
2023-02-26T01:48:36.014Z,21.49
2023-02-26T01:51:47.765Z,21.48
2023-02-26T01:54:53.455Z,21.49
2023-02-26T01:58:00.105Z,21.47
2023-02-26T02:01:03.669Z,21.46
2023-02-26T02:04:11.223Z,21.46
2023-02-26T02:07:14.939Z,21.46
2023-02-26T02:10:19.859Z,21.46
2023-02-26T02:13:36.569Z,21.46
2023-02-26T02:16:49.089Z,21.45
2023-02-26T02:20:12.364Z,21.45
2023-02-26T02:23:21.355Z,21.46
2023-02-26T02:27:00.138Z,21.46
2023-02-26T02:30:34.242Z,21.45
2023-02-26T02:33:46.195Z,21.45
2023-02-26T02:36:54.995Z,21.45
2023-02-26T02:40:02.595Z,21.45
2023-02-26T02:43:10.482Z,21.45
2023-02-26T02:46:19.524Z,21.45
2023-02-26T02:49:30.330Z,21.44
2023-02-26T02:52:38.930Z,21.44
2023-02-26T02:55:47.420Z,21.43
2023-02-26T02:58:55.650Z,21.43
2023-02-26T03:02:07.646Z,21.43
2023-02-26T03:05:12.143Z,21.44
2023-02-26T03:08:18.720Z,21.44
2023-02-26T03:11:22.858Z,21.44
2023-02-26T03:14:26.526Z,21.43
2023-02-26T03:17:34.828Z,21.44
2023-02-26T03:20:46.071Z,21.44
2023-02-26T03:23:56.627Z,21.43
2023-02-26T03:27:01.840Z,21.44
2023-02-26T03:30:09.141Z,21.44
2023-02-26T03:33:24.256Z,21.42
2023-02-26T03:36:33.774Z,21.42
2023-02-26T03:39:59.280Z,21.42
2023-02-26T03:43:07.447Z,21.42
2023-02-26T03:46:16.454Z,21.42
2023-02-26T03:49:27.108Z,21.42
2023-02-26T03:52:35.527Z,21.42
2023-02-26T03:56:09.453Z,21.44
2023-02-26T03:59:38.801Z,21.44
2023-02-26T04:03:17.729Z,21.46
2023-02-26T04:06:21.365Z,21.45
2023-02-26T04:09:26.569Z,21.45
2023-02-26T04:12:30.358Z,21.45
2023-02-26T04:15:34.125Z,21.45
2023-02-26T04:18:37.127Z,21.46
2023-02-26T04:21:41.620Z,21.47
2023-02-26T04:24:46.032Z,21.47
2023-02-26T04:27:51.315Z,21.47
2023-02-26T04:30:55.097Z,21.48
2023-02-26T04:33:58.400Z,21.49
2023-02-26T04:37:01.429Z,21.48
2023-02-26T04:40:06.955Z,21.49
2023-02-26T04:43:10.388Z,21.50
2023-02-26T04:46:21.263Z,21.51
2023-02-26T04:49:24.439Z,21.51
2023-02-26T04:52:27.746Z,21.51
2023-02-26T04:55:32.270Z,21.51
2023-02-26T04:58:35.401Z,21.51
2023-02-26T05:01:44.054Z,21.51
2023-02-26T05:04:47.152Z,21.51
2023-02-26T05:07:50.154Z,21.50
2023-02-26T05:10:54.956Z,21.51
2023-02-26T05:13:58.065Z,21.50
2023-02-26T05:17:01.065Z,21.49
2023-02-26T05:20:04.856Z,21.48
2023-02-26T05:23:08.248Z,21.47
2023-02-26T05:26:12.679Z,21.46
2023-02-26T05:29:15.636Z,21.45
2023-02-26T05:32:20.616Z,21.43
2023-02-26T05:35:23.777Z,21.43
2023-02-26T05:38:26.849Z,21.42
2023-02-26T05:41:31.486Z,21.41
2023-02-26T05:44:35.390Z,21.42
2023-02-26T05:47:38.483Z,21.40
2023-02-26T05:50:41.408Z,21.39
2023-02-26T05:53:44.481Z,21.40
2023-02-26T05:56:49.025Z,21.40
2023-02-26T05:59:51.997Z,21.39
2023-02-26T06:02:55.163Z,21.40
2023-02-26T06:05:58.117Z,21.41
2023-02-26T06:09:01.353Z,21.40
2023-02-26T06:12:06.712Z,21.41
2023-02-26T06:15:11.366Z,21.41
2023-02-26T06:18:14.442Z,21.40
2023-02-26T06:21:17.729Z,21.42
2023-02-26T06:24:20.882Z,21.41
2023-02-26T06:27:25.344Z,21.41
2023-02-26T06:30:28.455Z,21.41
2023-02-26T06:33:31.481Z,21.41
2023-02-26T06:36:34.408Z,21.41
2023-02-26T06:39:37.480Z,21.42
2023-02-26T06:42:42.004Z,21.42
2023-02-26T06:45:45.127Z,21.43
2023-02-26T06:48:48.157Z,21.43
2023-02-26T06:51:51.214Z,21.43
2023-02-26T06:54:54.232Z,21.44
2023-02-26T06:57:59.476Z,21.43
2023-02-26T07:01:04.362Z,21.43
2023-02-26T07:04:07.396Z,21.43
2023-02-26T07:07:11.445Z,21.42
2023-02-26T07:10:14.402Z,21.43
2023-02-26T07:13:19.344Z,21.43
2023-02-26T07:16:22.849Z,21.43
2023-02-26T07:19:25.821Z,21.43
2023-02-26T07:22:28.801Z,21.43
2023-02-26T07:25:31.762Z,21.43
2023-02-26T07:28:36.185Z,21.43
2023-02-26T07:31:39.727Z,21.41
2023-02-26T07:34:42.767Z,21.42
2023-02-26T07:37:45.816Z,21.40
2023-02-26T07:40:48.841Z,21.39
2023-02-26T07:43:53.294Z,21.40
2023-02-26T07:46:56.240Z,21.39
2023-02-26T07:49:59.336Z,21.39
2023-02-26T07:53:02.359Z,21.41
2023-02-26T07:56:05.847Z,21.39
2023-02-26T07:59:10.821Z,21.40
2023-02-26T08:02:14.540Z,21.42
2023-02-26T08:05:17.667Z,21.41
2023-02-26T08:08:20.738Z,21.41
2023-02-26T08:11:23.900Z,21.41
2023-02-26T08:14:28.263Z,21.41
2023-02-26T08:17:31.240Z,21.40
2023-02-26T08:20:34.199Z,21.40
2023-02-26T08:23:37.200Z,21.40
2023-02-26T08:26:40.541Z,21.42
2023-02-26T08:29:46.865Z,21.33
2023-02-26T08:32:49.940Z,21.08
2023-02-26T08:35:53.731Z,20.87
2023-02-26T08:38:56.742Z,20.66
2023-02-26T08:41:59.777Z,20.72
2023-02-26T08:45:05.007Z,20.85
2023-02-26T08:48:10.473Z,21.05
2023-02-26T08:51:13.818Z,21.23
2023-02-26T08:54:17.388Z,21.37
2023-02-26T08:57:20.448Z,21.50
2023-02-26T09:00:25.215Z,21.61
2023-02-26T09:03:28.310Z,21.71
2023-02-26T09:06:32.583Z,21.78
2023-02-26T09:09:36.017Z,21.83
2023-02-26T09:12:39.087Z,21.88
2023-02-26T09:15:43.797Z,21.94
2023-02-26T09:18:47.272Z,21.97
2023-02-26T09:21:50.729Z,22.01
2023-02-26T09:24:53.838Z,22.02
2023-02-26T09:27:58.652Z,22.02
2023-02-26T09:31:03.314Z,22.03
2023-02-26T09:34:06.786Z,22.01
2023-02-26T09:37:10.956Z,21.99
2023-02-26T09:40:25.719Z,21.95
2023-02-26T09:43:58.592Z,21.92
2023-02-26T09:47:07.681Z,21.85
2023-02-26T09:50:18.561Z,21.79
2023-02-26T09:53:25.358Z,21.72
2023-02-26T09:56:30.940Z,21.62
2023-02-26T09:59:35.180Z,21.53
2023-02-26T10:02:48.716Z,21.43
2023-02-26T10:06:11.298Z,21.36
2023-02-26T10:09:26.175Z,21.34
2023-02-26T10:12:32.346Z,21.36
2023-02-26T10:15:40.740Z,21.39
2023-02-26T10:18:49.320Z,21.44
2023-02-26T10:21:55.853Z,21.49
2023-02-26T10:25:04.389Z,21.55
2023-02-26T10:28:22.215Z,21.62
2023-02-26T10:31:32.210Z,21.71
2023-02-26T10:34:43.299Z,21.80
2023-02-26T10:37:50.440Z,21.89
2023-02-26T10:41:01.766Z,21.98
2023-02-26T10:44:15.060Z,22.04
2023-02-26T10:47:29.892Z,22.09
2023-02-26T10:50:34.550Z,22.10
2023-02-26T10:53:40.688Z,22.10
2023-02-26T10:56:43.793Z,22.08
2023-02-26T10:59:46.825Z,22.06
2023-02-26T11:02:53.383Z,22.04
2023-02-26T11:05:57.811Z,21.99
2023-02-26T11:09:02.761Z,21.96
2023-02-26T11:12:14.005Z,21.92
2023-02-26T11:15:20.112Z,21.88
2023-02-26T11:18:28.151Z,21.84
2023-02-26T11:21:39.300Z,21.82
2023-02-26T11:24:46.894Z,21.80
2023-02-26T11:27:54.893Z,21.79
2023-02-26T11:30:57.998Z,21.77
2023-02-26T11:34:04.975Z,21.74
2023-02-26T11:37:09.562Z,21.72
2023-02-26T11:40:18.139Z,21.69
2023-02-26T11:43:23.690Z,21.67
2023-02-26T11:46:27.144Z,21.66
2023-02-26T11:49:30.694Z,21.64
2023-02-26T11:52:41.184Z,21.63
2023-02-26T11:55:48.145Z,21.61
2023-02-26T11:58:55.254Z,21.60
2023-02-26T12:02:04.105Z,21.59
2023-02-26T12:05:08.257Z,21.59
2023-02-26T12:08:19.525Z,21.58
2023-02-26T12:11:46.408Z,21.58
2023-02-26T12:15:01.391Z,21.58
2023-02-26T12:18:24.549Z,21.57
2023-02-26T12:21:40.587Z,21.58
2023-02-26T12:25:02.176Z,21.56
2023-02-26T12:28:30.369Z,21.57
2023-02-26T12:31:57.200Z,21.57
2023-02-26T12:35:18.810Z,21.57
2023-02-26T12:38:29.722Z,21.57
2023-02-26T12:41:57.508Z,21.58
2023-02-26T12:45:21.920Z,21.58
2023-02-26T12:48:53.072Z,21.58
2023-02-26T12:52:20.055Z,21.58
2023-02-26T12:55:35.252Z,21.58
2023-02-26T12:59:01.958Z,21.59
2023-02-26T13:02:24.337Z,21.59
2023-02-26T13:05:43.864Z,21.58
2023-02-26T13:08:52.167Z,21.57
2023-02-26T13:12:09.708Z,21.56
2023-02-26T13:15:43.243Z,21.56
2023-02-26T13:18:55.020Z,21.55
2023-02-26T13:22:01.457Z,21.54
2023-02-26T13:25:07.729Z,21.53
2023-02-26T13:28:22.689Z,21.53
2023-02-26T13:31:33.016Z,21.53
2023-02-26T13:34:42.855Z,21.53
2023-02-26T13:37:49.339Z,21.53
2023-02-26T13:41:04.076Z,21.53
2023-02-26T13:44:22.052Z,21.53
2023-02-26T13:48:01.929Z,21.51
2023-02-26T13:51:10.755Z,21.51
2023-02-26T13:54:36.081Z,21.51
2023-02-26T13:57:48.782Z,21.51
2023-02-26T14:01:00.303Z,21.51
2023-02-26T14:04:26.078Z,21.51
2023-02-26T14:07:53.641Z,21.51
2023-02-26T14:11:03.611Z,21.50
2023-02-26T14:14:31.505Z,21.52
2023-02-26T14:17:40.651Z,21.53
2023-02-26T14:20:46.584Z,21.54
2023-02-26T14:23:50.596Z,21.53
2023-02-26T14:27:10.504Z,21.53
2023-02-26T14:30:20.498Z,21.54
2023-02-26T14:33:30.170Z,21.55
2023-02-26T14:36:40.909Z,21.54
2023-02-26T14:39:49.705Z,21.54
2023-02-26T14:42:55.972Z,21.54
2023-02-26T14:45:59.026Z,21.54
2023-02-26T14:49:02.441Z,21.54
2023-02-26T14:52:41.589Z,21.54
2023-02-26T14:56:00.406Z,21.53
2023-02-26T14:59:35.008Z,21.54
2023-02-26T15:02:50.640Z,21.54
2023-02-26T15:06:12.458Z,21.53
2023-02-26T15:09:22.645Z,21.52
2023-02-26T15:12:42.794Z,21.53
2023-02-26T15:15:54.388Z,21.51
2023-02-26T15:19:22.461Z,21.49
2023-02-26T15:22:49.173Z,21.48
2023-02-26T15:25:52.818Z,21.48
2023-02-26T15:28:58.712Z,21.48
2023-02-26T15:32:08.225Z,21.46
2023-02-26T15:35:19.209Z,21.46
2023-02-26T15:38:23.080Z,21.45
2023-02-26T15:41:28.416Z,21.46
2023-02-26T15:44:35.098Z,21.46
2023-02-26T15:47:40.870Z,21.47
2023-02-26T15:50:46.949Z,21.47
2023-02-26T15:53:52.266Z,21.47
2023-02-26T15:56:55.416Z,21.46
2023-02-26T16:00:10.350Z,21.47
2023-02-26T16:03:16.005Z,21.47
2023-02-26T16:06:21.882Z,21.47
2023-02-26T16:09:30.099Z,21.48
2023-02-26T16:12:37.928Z,21.48
2023-02-26T16:15:43.740Z,21.48
2023-02-26T16:18:47.779Z,21.49
2023-02-26T16:21:53.579Z,21.50
2023-02-26T16:25:01.039Z,21.52
2023-02-26T16:28:06.743Z,21.53
2023-02-26T16:31:18.550Z,21.54
2023-02-26T16:34:30.224Z,21.54
2023-02-26T16:37:36.152Z,21.53
2023-02-26T16:40:44.395Z,21.52
2023-02-26T16:43:54.384Z,21.53
2023-02-26T16:47:00.016Z,21.52
2023-02-26T16:50:03.843Z,21.53
2023-02-26T16:53:09.765Z,21.51
2023-02-26T16:56:16.795Z,21.51
2023-02-26T16:59:23.177Z,21.50
2023-02-26T17:02:30.841Z,21.50
2023-02-26T17:05:38.428Z,21.50
2023-02-26T17:08:49.134Z,21.49
2023-02-26T17:11:52.685Z,21.49
2023-02-26T17:14:57.892Z,21.49
2023-02-26T17:18:03.054Z,21.48
2023-02-26T17:21:08.042Z,21.47
2023-02-26T17:24:17.906Z,21.46
2023-02-26T17:27:28.360Z,21.46
2023-02-26T17:30:33.609Z,21.47
2023-02-26T17:33:41.469Z,21.46
2023-02-26T17:36:44.634Z,21.45
2023-02-26T17:39:47.986Z,21.46
2023-02-26T17:42:51.990Z,21.46
2023-02-26T17:45:54.995Z,21.45
2023-02-26T17:48:59.371Z,21.47
2023-02-26T17:52:02.424Z,21.47
2023-02-26T17:55:05.892Z,21.47
2023-02-26T17:58:14.481Z,21.47
2023-02-26T18:01:17.517Z,21.46
2023-02-26T18:04:22.589Z,21.47
2023-02-26T18:07:26.320Z,21.47
2023-02-26T18:10:29.379Z,21.46
2023-02-26T18:13:32.651Z,21.47
2023-02-26T18:16:40.313Z,21.46
2023-02-26T18:19:46.306Z,21.46
2023-02-26T18:22:50.475Z,21.46
2023-02-26T18:25:56.411Z,21.47
2023-02-26T18:28:59.451Z,21.47
2023-02-26T18:32:03.678Z,21.47
2023-02-26T18:35:08.941Z,21.48
2023-02-26T18:38:12.961Z,21.49
2023-02-26T18:41:15.979Z,21.48
2023-02-26T18:44:18.958Z,21.48
2023-02-26T18:47:23.165Z,21.48
2023-02-26T18:50:27.466Z,21.48
2023-02-26T18:53:30.481Z,21.47
2023-02-26T18:56:33.529Z,21.46
2023-02-26T18:59:36.700Z,21.46
2023-02-26T19:02:39.860Z,21.46
2023-02-26T19:05:44.312Z,21.45
2023-02-26T19:08:47.609Z,21.45
2023-02-26T19:11:50.622Z,21.42
2023-02-26T19:14:53.701Z,21.39
2023-02-26T19:17:56.839Z,21.39
2023-02-26T19:21:02.593Z,21.37
2023-02-26T19:24:06.598Z,21.37
2023-02-26T19:27:10.301Z,21.36
2023-02-26T19:30:13.886Z,21.37
2023-02-26T19:33:20.393Z,21.40
2023-02-26T19:36:25.176Z,21.43
2023-02-26T19:39:28.523Z,21.45
2023-02-26T19:42:31.487Z,21.48
2023-02-26T19:45:34.478Z,21.51
2023-02-26T19:48:37.731Z,21.52
2023-02-26T19:51:43.228Z,21.55
2023-02-26T19:54:46.272Z,21.57
2023-02-26T19:57:49.388Z,21.59
2023-02-26T20:00:52.616Z,21.61
2023-02-26T20:03:56.096Z,21.61
2023-02-26T20:07:00.496Z,21.62
2023-02-26T20:10:03.568Z,21.63
2023-02-26T20:13:06.633Z,21.62
2023-02-26T20:16:11.285Z,21.61
2023-02-26T20:19:14.624Z,21.61
2023-02-26T20:22:21.229Z,21.60
2023-02-26T20:25:24.650Z,21.61
2023-02-26T20:28:28.264Z,21.58
2023-02-26T20:31:31.697Z,21.58
2023-02-26T20:34:34.689Z,21.56
2023-02-26T20:37:39.931Z,21.56
2023-02-26T20:40:42.979Z,21.55
2023-02-26T20:43:45.984Z,21.55
2023-02-26T20:46:49.070Z,21.54
2023-02-26T20:49:52.090Z,21.53
2023-02-26T20:52:56.476Z,21.53
2023-02-26T20:56:00.111Z,21.53
2023-02-26T20:59:03.228Z,21.54
2023-02-26T21:02:06.160Z,21.54
2023-02-26T21:05:10.508Z,21.54
2023-02-26T21:08:15.269Z,21.55
2023-02-26T21:11:18.237Z,21.56
2023-02-26T21:14:21.335Z,21.59
2023-02-26T21:17:25.094Z,21.59
2023-02-26T21:20:28.123Z,21.61
2023-02-26T21:23:32.508Z,21.65
2023-02-26T21:26:35.592Z,21.66
2023-02-26T21:29:38.657Z,21.67
2023-02-26T21:32:42.737Z,21.67
2023-02-26T21:35:45.770Z,21.68
2023-02-26T21:38:50.113Z,21.68
2023-02-26T21:41:53.077Z,21.69
2023-02-26T21:44:56.041Z,21.69
2023-02-26T21:47:59.059Z,21.69
2023-02-26T21:51:02.285Z,21.70
2023-02-26T21:54:06.914Z,21.70
2023-02-26T21:57:10.071Z,21.71
2023-02-26T22:00:14.385Z,21.72
2023-02-26T22:03:17.521Z,21.73
2023-02-26T22:06:20.508Z,21.75
2023-02-26T22:09:24.874Z,21.74
2023-02-26T22:12:27.822Z,21.74
2023-02-26T22:15:30.945Z,21.74
2023-02-26T22:18:33.979Z,21.74
2023-02-26T22:21:37.406Z,21.73
2023-02-26T22:24:42.065Z,21.74
2023-02-26T22:27:45.116Z,21.75
2023-02-26T22:30:48.201Z,21.73
2023-02-26T22:33:51.221Z,21.73
2023-02-26T22:36:54.377Z,21.72
2023-02-26T22:39:58.729Z,21.72
2023-02-26T22:43:01.772Z,21.72
2023-02-26T22:46:05.078Z,21.74
2023-02-26T22:49:08.082Z,21.73
2023-02-26T22:52:11.761Z,21.72
2023-02-26T22:55:16.545Z,21.72
2023-02-26T22:58:19.586Z,21.73
2023-02-26T23:01:22.606Z,21.72
2023-02-26T23:04:25.644Z,21.71
2023-02-26T23:07:28.747Z,21.72
2023-02-26T23:10:34.124Z,21.71
2023-02-26T23:13:38.100Z,21.71
2023-02-26T23:16:41.573Z,21.71
2023-02-26T23:19:44.820Z,21.70
2023-02-26T23:22:47.906Z,21.71
2023-02-26T23:25:52.729Z,21.69
2023-02-26T23:28:56.046Z,21.70
2023-02-26T23:31:59.081Z,21.71
2023-02-26T23:35:02.199Z,21.70
2023-02-26T23:38:06.134Z,21.70
2023-02-26T23:41:10.971Z,21.71
2023-02-26T23:44:13.938Z,21.70
2023-02-26T23:47:16.995Z,21.70
2023-02-26T23:50:20.145Z,21.69
2023-02-26T23:53:23.566Z,21.70
2023-02-26T23:56:28.393Z,21.70
2023-02-26T23:59:31.528Z,21.70
